Time;durP1;ratioP1;P1;durP2;ratioP2;P2;SDS_P1;SDS_P2;PMS_P1;PMS_P2;Temp;Humidity;BMP_temperature;BMP_pressure;BME280_temperature;BME280_humidity;BME280_pressure;Samples;Min_cycle;Max_cycle;Signal;HPM_P1;HPM_P2
2021/12/14 00:00:07;;;;;;;;;;;;;;;6.76;100.00;101960.28;5032730;28;1191;-73
2021/12/14 00:02:33;;;;;;;;;;;;;;;6.76;100.00;101961.16;5049339;28;863;-75
2021/12/14 00:05:00;;;;;;;;;;;;;;;6.77;100.00;101960.19;5032325;28;1902;-75
2021/12/14 00:07:28;;;;;;;;;;;;;;;6.77;100.00;101960.19;5049485;28;1379;-73
2021/12/14 00:10:10;;;;;;;;;;;;;;;6.77;100.00;101957.50;5029331;28;1441;-74
2021/12/14 00:12:42;;;;;;;;;;;;;;;6.74;100.00;101957.66;5016076;28;1206;-75
2021/12/14 00:15:12;;;;;;;;;;;;;;;6.73;100.00;101963.97;4999776;28;1331;-75
2021/12/14 00:17:40;;;;;;;;;;;;;;;6.71;100.00;101960.50;4999954;28;1156;-75
2021/12/14 00:20:10;;;;;;;;;;;;;;;6.72;100.00;101954.16;5031996;28;1186;-73
2021/12/14 00:24:06;;;;;;;;;;;;;;;6.70;100.00;101962.28;4999549;28;1334;-75
2021/12/14 00:25:25;;;;;;;;;;;;;;;6.72;100.00;101956.84;5015364;28;1906;-74
2021/12/14 00:27:52;;;;;;;;;;;;;;;6.70;100.00;101959.59;4999880;28;1188;-75
2021/12/14 00:30:19;;;;;;;;;;;;;;;6.73;100.00;101961.28;5015695;28;1134;-75
2021/12/14 00:32:46;;;;;;;;;;;;;;;6.70;100.00;101964.13;5011229;28;1636;-73
2021/12/14 00:35:13;;;;;;;;;;;;;;;6.66;100.00;101954.44;5032433;28;1311;-76
2021/12/14 00:37:46;;;;;;;;;;;;;;;6.66;100.00;101955.28;5032056;28;1260;-76
2021/12/14 00:40:15;;;;;;;;;;;;;;;6.65;100.00;101958.94;5031652;28;1288;-75
2021/12/14 00:42:41;;;;;;;;;;;;;;;6.64;100.00;101954.50;5044757;28;1416;-75
2021/12/14 00:45:08;;;;;;;;;;;;;;;6.62;100.00;101947.41;5012232;28;1914;-75
2021/12/14 00:47:34;;;;;;;;;;;;;;;6.61;100.00;101951.06;5012433;28;1093;-72
2021/12/14 00:50:01;;;;;;;;;;;;;;;6.61;100.00;101962.72;5013306;28;1528;-74
2021/12/14 00:52:29;;;;;;;;;;;;;;;6.60;100.00;101960.97;5013465;28;1580;-75
2021/12/14 00:54:57;;;;;;;;;;;;;;;6.60;100.00;101958.28;5048104;28;1322;-73
2021/12/14 00:57:24;;;;;;;;;;;;;;;6.60;100.00;101960.09;5024079;28;1477;-74
2021/12/14 00:59:50;;;;;;;;;;;;;;;6.61;100.00;101949.22;5044390;28;1189;-75
2021/12/14 01:02:19;;;;;;;;;;;;;;;6.61;100.00;101953.75;5048464;28;1250;-75
2021/12/14 01:04:47;;;;;;;;;;;;;;;6.58;100.00;101970.94;5049405;23;3423;-75
2021/12/14 01:07:15;;;;;;;;;;;;;;;6.53;100.00;101976.56;5033478;28;1331;-75
2021/12/14 01:09:43;;;;;;;;;;;;;;;6.50;100.00;101978.50;5017492;28;1158;-75
2021/12/14 01:12:18;;;;;;;;;;;;;;;6.46;100.00;101972.38;5017821;28;1128;-76
2021/12/14 01:14:48;;;;;;;;;;;;;;;6.47;100.00;101973.28;5034007;28;1309;-75
2021/12/14 01:17:26;;;;;;;;;;;;;;;6.48;100.00;101970.50;5016016;28;1326;-75
2021/12/14 01:19:57;;;;;;;;;;;;;;;6.46;100.00;101971.50;5014212;28;1247;-75
2021/12/14 01:22:38;;;;;;;;;;;;;;;6.47;100.00;101976.81;4997911;28;1357;-74
2021/12/14 01:25:09;;;;;;;;;;;;;;;6.45;100.00;101975.13;4997771;28;1918;-75
2021/12/14 01:27:43;;;;;;;;;;;;;;;6.44;100.00;101976.06;5002453;28;1485;-75
2021/12/14 01:30:14;;;;;;;;;;;;;;;6.43;100.00;101964.41;5016981;28;1126;-75
2021/12/14 01:32:44;;;;;;;;;;;;;;;6.45;100.00;101969.75;5017411;28;1224;-75
2021/12/14 01:35:13;;;;;;;;;;;;;;;6.45;100.00;101962.50;5017240;28;1396;-75
2021/12/14 01:37:46;;;;;;;;;;;;;;;6.47;100.00;101959.78;5009988;28;1550;-75
2021/12/14 01:40:29;;;;;;;;;;;;;;;6.47;100.00;101957.94;4997348;28;1380;-75
2021/12/14 01:42:58;;;;;;;;;;;;;;;6.48;100.00;101957.00;4997565;28;1198;-75
2021/12/14 01:45:26;;;;;;;;;;;;;;;6.47;100.00;101957.94;4997027;28;1918;-75
2021/12/14 01:47:54;;;;;;;;;;;;;;;6.46;100.00;101956.19;4997642;28;1442;-75
2021/12/14 01:50:41;;;;;;;;;;;;;;;6.44;100.00;101952.69;5012963;28;1125;-75
2021/12/14 01:53:13;;;;;;;;;;;;;;;6.43;100.00;101953.63;4997640;28;1194;-75
2021/12/14 01:55:43;;;;;;;;;;;;;;;6.43;100.00;101947.38;4997121;28;1298;-75
2021/12/14 01:58:11;;;;;;;;;;;;;;;6.44;100.00;101947.31;5010052;28;1406;-75
2021/12/14 02:00:40;;;;;;;;;;;;;;;6.46;100.00;101944.53;5016826;28;1261;-75
2021/12/14 02:03:08;;;;;;;;;;;;;;;6.46;100.00;101947.22;5016998;28;1157;-75
2021/12/14 02:05:36;;;;;;;;;;;;;;;6.49;100.00;101941.69;5016493;28;1979;-75
2021/12/14 02:08:04;;;;;;;;;;;;;;;6.47;100.00;101939.06;5003756;28;1589;-75
2021/12/14 02:10:33;;;;;;;;;;;;;;;6.46;100.00;101936.44;4996975;28;1180;-75
2021/12/14 02:13:00;;;;;;;;;;;;;;;6.44;100.00;101925.72;5013535;28;1152;-75
2021/12/14 02:15:33;;;;;;;;;;;;;;;6.45;100.00;101930.16;4997111;28;1384;-76
2021/12/14 02:18:05;;;;;;;;;;;;;;;6.45;100.00;101922.06;5010997;28;1953;-75
2021/12/14 02:20:35;;;;;;;;;;;;;;;6.45;100.00;101921.19;5016695;28;1228;-75
2021/12/14 02:23:03;;;;;;;;;;;;;;;6.45;100.00;101923.88;5016963;28;1160;-75
2021/12/14 02:25:30;;;;;;;;;;;;;;;6.45;100.00;101924.75;5016573;28;1907;-76
2021/12/14 02:28:00;;;;;;;;;;;;;;;6.43;100.00;101918.56;5017053;28;1243;-75
2021/12/14 02:30:28;;;;;;;;;;;;;;;6.43;100.00;101926.66;5016591;28;1355;-75
2021/12/14 02:32:55;;;;;;;;;;;;;;;6.46;100.00;101921.13;5015721;28;1469;-75
2021/12/14 02:35:23;;;;;;;;;;;;;;;6.45;100.00;101919.34;5016568;28;1337;-75
2021/12/14 02:37:52;;;;;;;;;;;;;;;6.45;100.00;101913.97;5017024;28;1172;-75
2021/12/14 02:40:30;;;;;;;;;;;;;;;6.44;100.00;101909.53;5016526;28;1107;-75
2021/12/14 02:42:58;;;;;;;;;;;;;;;6.43;100.00;101915.88;5012936;28;1457;-75
2021/12/14 02:45:24;;;;;;;;;;;;;;;6.44;100.00;101911.34;4996746;28;1910;-75
2021/12/14 02:47:52;;;;;;;;;;;;;;;6.44;100.00;101903.25;4997155;28;1152;-75
2021/12/14 02:50:19;;;;;;;;;;;;;;;6.41;100.00;101909.66;5013329;28;769;-75
2021/12/14 02:52:45;;;;;;;;;;;;;;;6.40;100.00;101909.72;4999183;28;1564;-75
2021/12/14 02:55:13;;;;;;;;;;;;;;;6.42;100.00;101900.63;5016632;28;1366;-74
2021/12/14 02:57:42;;;;;;;;;;;;;;;6.41;100.00;101904.25;5005242;28;1520;-75
2021/12/14 03:00:10;;;;;;;;;;;;;;;6.43;100.00;101894.28;4996662;28;1130;-75
2021/12/14 03:02:37;;;;;;;;;;;;;;;6.43;100.00;101902.38;4999612;28;1410;-75
2021/12/14 03:05:06;;;;;;;;;;;;;;;6.42;100.00;101900.63;5019941;28;1910;-75
2021/12/14 03:07:34;;;;;;;;;;;;;;;6.43;100.00;101899.69;5020002;28;1224;-75
2021/12/14 03:10:17;;;;;;;;;;;;;;;6.43;100.00;101890.72;5018694;28;1527;-75
2021/12/14 03:12:46;;;;;;;;;;;;;;;6.42;100.00;101889.84;5000105;28;1212;-75
2021/12/14 03:15:14;;;;;;;;;;;;;;;6.41;100.00;101888.06;5000364;28;1453;-75
2021/12/14 03:17:43;;;;;;;;;;;;;;;6.41;100.00;101887.22;4999911;28;1131;-75
2021/12/14 03:20:11;;;;;;;;;;;;;;;6.40;100.00;101880.94;5000769;28;1425;-75
2021/12/14 03:22:40;;;;;;;;;;;;;;;6.39;100.00;101881.91;5019651;28;1301;-75
2021/12/14 03:25:07;;;;;;;;;;;;;;;6.39;100.00;101875.59;5019538;28;1985;-75
2021/12/14 03:27:37;;;;;;;;;;;;;;;6.38;100.00;101877.44;5019668;28;1204;-76
2021/12/14 03:30:07;;;;;;;;;;;;;;;6.40;100.00;101880.06;5019300;28;1184;-75
2021/12/14 03:32:34;;;;;;;;;;;;;;;6.38;100.00;101874.75;5019606;28;1151;-75
2021/12/14 03:35:00;;;;;;;;;;;;;;;6.38;100.00;101871.19;5017557;28;1395;-75
2021/12/14 03:37:27;;;;;;;;;;;;;;;6.39;100.00;101862.13;5016311;28;801;-75
2021/12/14 03:40:01;;;;;;;;;;;;;;;6.38;100.00;101868.47;4999713;28;1251;-75
2021/12/14 03:42:35;;;;;;;;;;;;;;;6.37;100.00;101864.88;5016463;28;991;-76
2021/12/14 03:45:06;;;;;;;;;;;;;;;6.34;100.00;101865.91;5002544;28;1435;-75
2021/12/14 03:47:36;;;;;;;;;;;;;;;6.32;100.00;101862.41;5019699;28;1241;-75
2021/12/14 03:50:06;;;;;;;;;;;;;;;6.30;100.00;101858.91;5019035;28;1441;-75
2021/12/14 03:52:34;;;;;;;;;;;;;;;6.30;100.00;101858.03;5019230;28;1337;-75
2021/12/14 03:55:02;;;;;;;;;;;;;;;6.30;100.00;101866.13;5014718;28;1486;-75
2021/12/14 03:57:29;;;;;;;;;;;;;;;6.30;100.00;101858.03;4999534;28;1261;-75
2021/12/14 03:59:58;;;;;;;;;;;;;;;6.30;100.00;101852.63;4999221;28;1154;-75
2021/12/14 04:02:26;;;;;;;;;;;;;;;6.29;100.00;101849.03;4999316;28;1281;-75
2021/12/14 04:05:01;;;;;;;;;;;;;;;6.28;100.00;101838.34;5002639;28;1430;-75
2021/12/14 04:07:28;;;;;;;;;;;;;;;6.25;100.00;101827.69;5018978;28;2072;-75
2021/12/14 04:10:07;;;;;;;;;;;;;;;6.22;100.00;101831.41;5018757;28;1157;-75
2021/12/14 04:12:34;;;;;;;;;;;;;;;6.22;100.00;101827.84;5018845;28;1112;-75
2021/12/14 04:15:00;;;;;;;;;;;;;;;6.18;100.00;101832.50;5018660;28;1316;-75
2021/12/14 04:17:30;;;;;;;;;;;;;;;6.18;100.00;101821.72;5018829;28;1087;-75
2021/12/14 04:19:57;;;;;;;;;;;;;;;6.18;100.00;101814.47;5013833;28;1362;-75
2021/12/14 04:22:33;;;;;;;;;;;;;;;6.18;100.00;101811.78;4999274;28;1245;-75
2021/12/14 04:25:01;;;;;;;;;;;;;;;6.17;100.00;101812.75;4999125;28;1502;-75
2021/12/14 04:27:29;;;;;;;;;;;;;;;6.20;100.00;101803.66;4998838;28;1914;-75
2021/12/14 04:29:56;;;;;;;;;;;;;;;6.20;100.00;101804.53;4998561;28;1149;-75
2021/12/14 04:32:23;;;;;;;;;;;;;;;6.19;100.00;101801.91;4998963;28;1541;-75
2021/12/14 04:34:54;;;;;;;;;;;;;;;6.17;100.00;101801.06;4998780;28;1379;-75
2021/12/14 04:37:20;;;;;;;;;;;;;;;6.15;100.00;101801.16;4998665;28;1400;-75
2021/12/14 04:39:53;;;;;;;;;;;;;;;6.18;100.00;101797.44;4998320;28;1272;-75
2021/12/14 04:53:34;;;;;;;;;;;;;;;6.11;100.00;101785.19;4998742;28;1307;-75
2021/12/14 04:56:01;;;;;;;;;;;;;;;6.11;100.00;101794.16;4998823;28;1397;-74
2021/12/14 04:58:30;;;;;;;;;;;;;;;6.12;100.00;101790.53;4998473;28;1165;-76
2021/12/14 05:00:58;;;;;;;;;;;;;;;6.14;100.00;101788.59;5004606;28;1492;-77
2021/12/14 05:03:30;;;;;;;;;;;;;;;6.16;100.00;101789.44;5006786;28;1308;-76
2021/12/14 05:06:10;;;;;;;;;;;;;;;6.18;100.00;101789.34;5009897;28;1918;-76
2021/12/14 05:11:22;;;;;;;;;;;;;;;6.21;100.00;101794.59;5038633;28;1075;-75
2021/12/14 05:13:52;;;;;;;;;;;;;;;6.20;100.00;101804.53;5028867;28;1202;-76
2021/12/14 05:16:29;;;;;;;;;;;;;;;6.18;100.00;101800.13;5014353;28;1318;-76
2021/12/14 05:18:59;;;;;;;;;;;;;;;6.15;100.00;101816.47;5027292;28;1526;-76
2021/12/14 05:21:29;;;;;;;;;;;;;;;6.14;100.00;101820.97;5033828;28;1033;-76
2021/12/14 05:23:58;;;;;;;;;;;;;;;6.14;100.00;101820.09;5017448;28;1307;-75
2021/12/14 05:26:24;;;;;;;;;;;;;;;6.17;100.00;101828.03;4998251;28;2091;-75
2021/12/14 05:28:52;;;;;;;;;;;;;;;6.17;100.00;101836.13;5005295;28;1519;-75
2021/12/14 05:31:21;;;;;;;;;;;;;;;6.16;100.00;101834.38;5017524;28;1491;-76
2021/12/14 05:33:49;;;;;;;;;;;;;;;6.16;100.00;101829.88;5018615;28;1220;-77
2021/12/14 05:36:31;;;;;;;;;;;;;;;6.16;100.00;101827.19;5020576;28;1330;-78
2021/12/14 05:39:05;;;;;;;;;;;;;;;6.13;100.00;101829.13;5018127;28;1529;-77
2021/12/14 05:45:09;;;;;;;;;;;;;;;6.11;100.00;101821.13;4977088;28;1573;-75
2021/12/14 05:47:41;;;;;;;;;;;;;;;6.09;100.00;101820.28;4978607;28;1919;-78
2021/12/14 05:50:16;;;;;;;;;;;;;;;6.10;100.00;101824.75;4988638;28;1114;-77
2021/12/14 05:52:43;;;;;;;;;;;;;;;6.10;100.00;101822.06;4998323;28;1114;-77
2021/12/14 05:55:20;;;;;;;;;;;;;;;6.11;100.00;101814.84;4998341;28;1487;-77
2021/12/14 05:57:47;;;;;;;;;;;;;;;6.09;100.00;101817.59;4998792;28;1241;-76
2021/12/14 06:00:16;;;;;;;;;;;;;;;6.08;100.00;101821.25;4998420;28;1154;-77
2021/12/14 06:02:53;;;;;;;;;;;;;;;6.05;100.00;101810.59;4998463;28;1438;-77
2021/12/14 06:05:21;;;;;;;;;;;;;;;6.06;100.00;101811.50;4998452;28;1333;-77
2021/12/14 06:07:50;;;;;;;;;;;;;;;6.02;100.00;101806.22;4998487;28;1985;-77
2021/12/14 06:10:18;;;;;;;;;;;;;;;6.05;100.00;101810.59;4998745;28;2008;-77
2021/12/14 06:12:44;;;;;;;;;;;;;;;6.02;100.00;101806.22;5015776;28;801;-79
2021/12/14 06:15:17;;;;;;;;;;;;;;;6.02;100.00;101806.22;4999256;28;1592;-77
2021/12/14 06:17:44;;;;;;;;;;;;;;;6.01;100.00;101803.59;4998971;28;1134;-77
2021/12/14 06:20:29;;;;;;;;;;;;;;;6.03;100.00;101796.31;4997882;28;1335;-78
2021/12/14 06:23:01;;;;;;;;;;;;;;;6.03;100.00;101801.72;4999709;28;1410;-78
2021/12/14 06:26:03;;;;;;;;;;;;;;;6.04;100.00;101803.47;4999129;28;1918;-77
2021/12/14 06:28:30;;;;;;;;;;;;;;;6.01;100.00;101796.41;4998583;28;1329;-78
2021/12/14 06:30:59;;;;;;;;;;;;;;;6.04;100.00;101798.09;5015158;28;1164;-78
2021/12/14 06:33:29;;;;;;;;;;;;;;;6.02;100.00;101791.88;5011526;28;1490;-77
2021/12/14 06:35:59;;;;;;;;;;;;;;;6.02;100.00;101783.78;5018307;28;1287;-77
2021/12/14 06:38:29;;;;;;;;;;;;;;;6.04;100.00;101779.22;5020921;28;1139;-78
2021/12/14 06:41:13;;;;;;;;;;;;;;;6.06;100.00;101789.91;5021485;28;1363;-78
2021/12/14 06:43:47;;;;;;;;;;;;;;;6.06;100.00;101789.91;5021911;28;1132;-78
2021/12/14 06:46:16;;;;;;;;;;;;;;;6.04;100.00;101790.00;5022510;28;1911;-78
2021/12/14 06:48:45;;;;;;;;;;;;;;;6.03;100.00;101788.25;5022613;28;1149;-77
2021/12/14 06:51:13;;;;;;;;;;;;;;;6.01;100.00;101780.22;5021896;28;1154;-78
2021/12/14 06:53:58;;;;;;;;;;;;;;;6.01;100.00;101779.34;5021975;28;1144;-77
2021/12/14 06:56:31;;;;;;;;;;;;;;;6.00;100.00;101791.09;5038367;28;1303;-77
2021/12/14 06:59:20;;;;;;;;;;;;;;;5.99;100.00;101784.78;5045198;28;1301;-77
2021/12/14 07:02:10;;;;;;;;;;;;;;;5.99;100.00;101782.09;5037984;28;1198;-78
2021/12/14 07:05:05;;;;;;;;;;;;;;;5.99;100.00;101781.25;5053384;28;1308;-77
2021/12/14 07:07:35;;;;;;;;;;;;;;;5.99;100.00;101776.72;5029103;28;1910;-78
2021/12/14 07:10:11;;;;;;;;;;;;;;;5.99;100.00;101787.50;5001594;28;1262;-78
2021/12/14 07:12:38;;;;;;;;;;;;;;;5.99;100.00;101794.72;5002230;28;1129;-78
2021/12/14 07:15:09;;;;;;;;;;;;;;;5.97;100.00;101801.94;5005759;28;1293;-78
2021/12/14 07:17:42;;;;;;;;;;;;;;;5.96;100.00;101800.19;5033508;28;1439;-78
2021/12/14 07:20:21;;;;;;;;;;;;;;;5.95;100.00;101798.47;5011126;28;1399;-78
2021/12/14 07:22:50;;;;;;;;;;;;;;;5.94;100.00;101811.03;5018208;28;1414;-77
2021/12/14 07:25:22;;;;;;;;;;;;;;;5.96;100.00;101821.75;5001482;28;1318;-78
2021/12/14 07:27:49;;;;;;;;;;;;;;;5.94;100.00;101829.03;5001124;28;1926;-78
2021/12/14 07:30:18;;;;;;;;;;;;;;;5.93;100.00;101832.69;5001012;28;1260;-77
2021/12/14 07:32:47;;;;;;;;;;;;;;;5.93;100.00;101827.28;5001879;28;1308;-77
2021/12/14 07:35:16;;;;;;;;;;;;;;;5.94;100.00;101829.91;5001449;28;1361;-78
2021/12/14 07:37:42;;;;;;;;;;;;;;;5.96;100.00;101835.22;5001490;28;1176;-77
2021/12/14 07:40:10;;;;;;;;;;;;;;;5.95;100.00;101828.09;5001381;28;1208;-77
2021/12/14 07:42:38;;;;;;;;;;;;;;;5.96;100.00;101828.03;5001554;28;1177;-78
2021/12/14 07:45:06;;;;;;;;;;;;;;;5.96;100.00;101824.44;5001666;28;1337;-78
2021/12/14 07:47:33;;;;;;;;;;;;;;;5.96;100.00;101832.53;5002506;28;1922;-78
2021/12/14 07:50:00;;;;;;;;;;;;;;;5.97;100.00;101827.09;4999727;28;1184;-78
2021/12/14 07:52:28;;;;;;;;;;;;;;;5.95;100.00;101831.66;5001349;28;1109;-77
2021/12/14 07:54:56;;;;;;;;;;;;;;;5.97;100.00;101842.38;5017267;28;1316;-78
2021/12/14 07:57:24;;;;;;;;;;;;;;;5.96;100.00;101844.22;5016920;28;767;-78
2021/12/14 07:59:53;;;;;;;;;;;;;;;5.98;100.00;101836.94;5000369;28;1165;-78
2021/12/14 08:02:20;;;;;;;;;;;;;;;6.00;100.00;101839.59;5017219;28;1160;-78
2021/12/14 08:04:48;;;;;;;;;;;;;;;6.01;100.00;101836.84;5032344;28;1315;-77
2021/12/14 08:07:28;;;;;;;;;;;;;;;6.02;100.00;101846.66;5053771;28;1922;-78
2021/12/14 08:10:02;;;;;;;;;;;;;;;6.01;100.00;101841.31;5035735;28;1122;-76
2021/12/14 08:12:30;;;;;;;;;;;;;;;6.02;100.00;101837.69;5035653;28;1223;-76
2021/12/14 08:15:01;;;;;;;;;;;;;;;6.02;100.00;101827.78;5040857;28;1355;-78
2021/12/14 08:17:28;;;;;;;;;;;;;;;6.06;100.00;101830.34;5042739;28;1274;-77
2021/12/14 08:19:54;;;;;;;;;;;;;;;6.06;100.00;101833.06;5041264;28;1215;-77
2021/12/14 08:22:28;;;;;;;;;;;;;;;6.08;100.00;101847.31;5056884;28;1062;-77
2021/12/14 08:24:54;;;;;;;;;;;;;;;6.08;100.00;101855.41;5037995;28;1380;-77
2021/12/14 08:27:22;;;;;;;;;;;;;;;6.09;100.00;101849.09;5044587;28;1914;-78
2021/12/14 08:29:50;;;;;;;;;;;;;;;6.10;100.00;101861.63;5019477;28;1124;-76
2021/12/14 08:32:20;;;;;;;;;;;;;;;6.12;100.00;101860.63;5021753;28;1190;-77
2021/12/14 08:34:47;;;;;;;;;;;;;;;6.12;100.00;101859.72;5019981;28;1301;-77
2021/12/14 08:37:15;;;;;;;;;;;;;;;6.12;100.00;101860.63;5018903;28;1144;-77
2021/12/14 08:39:44;;;;;;;;;;;;;;;6.11;100.00;101850.75;5018801;28;1199;-76
2021/12/14 08:42:15;;;;;;;;;;;;;;;6.08;100.00;101853.59;5008847;28;1454;-77
2021/12/14 08:44:50;;;;;;;;;;;;;;;6.10;100.00;101850.84;5016884;28;1289;-77
2021/12/14 08:47:23;;;;;;;;;;;;;;;6.10;100.00;101853.53;5000929;28;1914;-78
2021/12/14 08:49:50;;;;;;;;;;;;;;;6.08;100.00;101859.00;5016260;28;757;-77
2021/12/14 08:52:16;;;;;;;;;;;;;;;6.12;100.00;101860.63;5000805;28;1228;-77
2021/12/14 08:54:43;;;;;;;;;;;;;;;6.12;100.00;101855.22;5000918;28;1536;-77
2021/12/14 08:57:13;;;;;;;;;;;;;;;6.10;100.00;101851.69;5000327;28;1169;-77
2021/12/14 08:59:41;;;;;;;;;;;;;;;6.10;100.00;101850.84;4999701;28;1169;-78
2021/12/14 09:02:11;;;;;;;;;;;;;;;6.09;100.00;101847.25;5014190;28;1508;-78
2021/12/14 09:04:40;;;;;;;;;;;;;;;6.10;100.00;101835.53;5033126;28;1306;-78
2021/12/14 09:07:08;;;;;;;;;;;;;;;6.13;100.00;101838.09;5054308;28;1910;-77
2021/12/14 09:09:35;;;;;;;;;;;;;;;6.16;100.00;101845.16;5035731;28;1136;-78
2021/12/14 09:12:05;;;;;;;;;;;;;;;6.17;100.00;101837.03;5036221;28;1131;-78
2021/12/14 09:14:32;;;;;;;;;;;;;;;6.22;100.00;101838.63;5036588;28;1402;-77
2021/12/14 09:17:00;;;;;;;;;;;;;;;6.25;100.00;101846.56;5036241;28;1140;-77
2021/12/14 09:19:28;;;;;;;;;;;;;;;6.30;100.00;101841.84;5035989;28;1156;-77
2021/12/14 09:21:57;;;;;;;;;;;;;;;6.32;100.00;101850.72;5035907;28;1357;-77
2021/12/14 09:24:26;;;;;;;;;;;;;;;6.32;100.00;101840.84;5035772;28;1438;-78
2021/12/14 09:26:55;;;;;;;;;;;;;;;6.31;100.00;101844.47;5034968;28;2041;-79
2021/12/14 09:29:22;;;;;;;;;;;;;;;6.29;100.00;101840.09;4999367;28;1129;-77
2021/12/14 09:31:51;;;;;;;;;;;;;;;6.29;100.00;101845.50;5000113;28;1493;-79
2021/12/14 09:34:20;;;;;;;;;;;;;;;6.30;100.00;101839.16;4999260;28;1328;-76
2021/12/14 09:36:46;;;;;;;;;;;;;;;6.29;100.00;101838.25;5016816;28;1223;-78
2021/12/14 09:39:17;;;;;;;;;;;;;;;6.28;100.00;101833.84;5004545;28;1299;-79
2021/12/14 09:41:45;;;;;;;;;;;;;;;6.28;100.00;101833.84;4999915;28;1128;-78
2021/12/14 09:44:13;;;;;;;;;;;;;;;6.29;100.00;101832.00;4999511;28;1338;-78
2021/12/14 09:46:40;;;;;;;;;;;;;;;6.28;100.00;101827.56;4999658;28;1358;-78
2021/12/14 09:49:08;;;;;;;;;;;;;;;6.28;100.00;101823.06;4998887;28;1979;-77
2021/12/14 09:51:36;;;;;;;;;;;;;;;6.27;100.00;101820.44;4999935;28;1220;-78
2021/12/14 09:54:05;;;;;;;;;;;;;;;6.27;100.00;101815.03;5000436;28;1278;-78
2021/12/14 09:56:34;;;;;;;;;;;;;;;6.28;100.00;101812.25;4999077;28;1410;-77
2021/12/14 09:59:01;;;;;;;;;;;;;;;6.30;100.00;101815.75;5015504;28;1229;-77
2021/12/14 10:01:29;;;;;;;;;;;;;;;6.33;100.00;101815.63;4998762;28;1397;-78
2021/12/14 10:03:57;;;;;;;;;;;;;;;6.36;100.00;101815.47;5016828;28;1340;-77
2021/12/14 10:06:26;;;;;;;;;;;;;;;6.38;100.00;101807.31;5034699;28;1395;-79
2021/12/14 10:08:58;;;;;;;;;;;;;;;6.35;100.00;101797.53;5035049;28;1914;-78
2021/12/14 10:11:36;;;;;;;;;;;;;;;6.38;100.00;101793.81;5034655;28;1354;-77
2021/12/14 10:14:04;;;;;;;;;;;;;;;6.39;100.00;101792.88;5039525;28;1372;-79
2021/12/14 10:16:31;;;;;;;;;;;;;;;6.41;100.00;101790.97;5036847;28;1418;-78
2021/12/14 10:18:59;;;;;;;;;;;;;;;6.45;100.00;101792.56;5022527;28;1281;-77
2021/12/14 10:21:28;;;;;;;;;;;;;;;6.49;100.00;101788.81;5021697;28;1156;-78
2021/12/14 10:23:54;;;;;;;;;;;;;;;6.55;100.00;101776.84;5022801;28;1230;-77
2021/12/14 10:26:22;;;;;;;;;;;;;;;6.63;100.00;101768.41;5022333;28;1314;-77
2021/12/14 10:28:50;;;;;;;;;;;;;;;6.74;100.00;101771.44;5014849;28;1918;-78
2021/12/14 10:31:20;;;;;;;;;;;;;;;6.81;100.00;101782.81;5002591;28;1185;-76
2021/12/14 10:33:47;;;;;;;;;;;;;;;6.87;100.00;101788.78;5002502;28;1157;-78
2021/12/14 10:36:27;;;;;;;;;;;;;;;6.88;100.00;101797.75;5001938;28;1411;-77
2021/12/14 10:39:20;;;;;;;;;;;;;;;6.92;100.00;101801.19;5003006;28;1262;-78
2021/12/14 10:44:39;;;;;;;;;;;;;;;6.95;100.00;101795.63;5002423;28;1388;-78
2021/12/14 10:47:08;;;;;;;;;;;;;;;6.98;100.00;101795.50;5018045;28;1165;-79
2021/12/14 10:49:34;;;;;;;;;;;;;;;7.04;100.00;101785.25;5017501;28;1902;-79
2021/12/14 10:52:04;;;;;;;;;;;;;;;7.10;100.00;101781.38;5004772;28;1114;-79
2021/12/14 10:54:30;;;;;;;;;;;;;;;7.15;100.00;101773.94;5009355;28;1410;-78
2021/12/14 10:56:58;;;;;;;;;;;;;;;7.18;100.00;101773.75;5003143;28;1133;-78
2021/12/14 10:59:26;;;;;;;;;;;;;;;7.23;100.00;101772.66;5000776;28;1134;-77
2021/12/14 11:01:53;;;;;;;;;;;;;;;7.24;100.00;101777.13;5017553;28;1111;-77
2021/12/14 11:04:33;;;;;;;;;;;;;;;7.17;100.00;101777.41;5024510;28;1445;-76
2021/12/14 11:07:02;;;;;;;;;;;;;;;7.13;100.00;101783.06;5039583;28;1159;-76
2021/12/14 11:12:15;;;;;;;;;;;;;;;7.04;100.00;101779.88;5024158;28;1266;-79
2021/12/14 11:14:42;;;;;;;;;;;;;;;7.08;100.00;101779.69;5026342;28;1263;-78
2021/12/14 11:19:57;;;;;;;;;;;;;;;7.18;100.00;101775.59;5020519;28;1161;-78
2021/12/14 11:22:25;;;;;;;;;;;;;;;7.20;100.00;101763.78;5021156;28;1313;-77
2021/12/14 11:24:54;;;;;;;;;;;;;;;7.30;100.00;101766.00;5020816;28;1374;-79
2021/12/14 11:27:22;;;;;;;;;;;;;;;7.33;100.00;101766.69;5020474;28;1243;-77
2021/12/14 11:29:51;;;;;;;;;;;;;;;7.36;100.00;101760.28;5036800;28;1910;-76
2021/12/14 11:32:19;;;;;;;;;;;;;;;7.34;100.00;101748.69;5020494;28;1180;-75
2021/12/14 11:34:46;;;;;;;;;;;;;;;7.42;100.00;101759.97;5019807;28;1357;-78
2021/12/14 11:37:16;;;;;;;;;;;;;;;7.43;100.00;101758.13;5019401;28;1268;-78
2021/12/14 11:39:44;;;;;;;;;;;;;;;7.43;100.00;101759.03;5019687;28;1317;-78
2021/12/14 11:42:11;;;;;;;;;;;;;;;7.38;100.00;101770.03;5019745;28;1167;-78
2021/12/14 11:44:39;;;;;;;;;;;;;;;7.44;100.00;101771.59;5022312;28;1376;-79
2021/12/14 11:47:08;;;;;;;;;;;;;;;7.46;100.00;101769.66;5040359;28;1188;-78
2021/12/14 11:49:51;;;;;;;;;;;;;;;7.50;100.00;101770.38;5023295;28;1890;-77
2021/12/14 11:52:32;;;;;;;;;;;;;;;7.43;100.00;101769.84;5019533;28;2098;-78
2021/12/14 11:55:01;;;;;;;;;;;;;;;7.43;100.00;101775.22;5019707;28;1305;-77
2021/12/14 11:57:30;;;;;;;;;;;;;;;7.40;100.00;101774.50;5019285;28;1303;-78
2021/12/14 12:00:01;;;;;;;;;;;;;;;7.43;100.00;101767.13;5018968;28;1165;-77
2021/12/14 12:02:27;;;;;;;;;;;;;;;7.45;100.00;101767.03;5019287;28;1274;-76
2021/12/14 12:04:54;;;;;;;;;;;;;;;7.48;100.00;101758.78;5018983;28;1409;-74
2021/12/14 12:10:07;;;;;;;;;;;;;;;7.62;100.00;101767.03;5018551;28;1926;-77
2021/12/14 12:12:34;;;;;;;;;;;;;;;7.66;100.00;101754.25;5018823;28;1197;-76
2021/12/14 12:15:03;;;;;;;;;;;;;;;7.73;100.00;101752.97;5018808;28;1300;-77
2021/12/14 12:17:33;;;;;;;;;;;;;;;7.74;100.00;101745.72;5025827;28;1315;-75
2021/12/14 12:20:10;;;;;;;;;;;;;;;7.78;100.00;101747.31;5026749;28;1156;-77
2021/12/14 12:22:37;;;;;;;;;;;;;;;7.79;100.00;101744.53;5018700;28;1145;-77
2021/12/14 12:25:06;;;;;;;;;;;;;;;7.69;100.00;101740.56;5018506;28;1400;-77
2021/12/14 12:27:36;;;;;;;;;;;;;;;7.74;100.00;101749.31;5018629;28;1320;-77
2021/12/14 12:30:34;;;;;;;;;;;;;;;7.71;100.00;101741.38;5018237;28;1981;-75
2021/12/14 12:33:07;;;;;;;;;;;;;;;7.69;100.00;101738.72;4958943;28;1336;-76
2021/12/14 12:35:35;;;;;;;;;;;;;;;7.71;100.00;101749.47;5007155;28;1318;-76
2021/12/14 12:38:16;;;;;;;;;;;;;;;7.66;100.00;101749.72;5034956;28;1161;-77
2021/12/14 12:40:49;;;;;;;;;;;;;;;7.62;100.00;101755.38;5018383;28;1508;-77
2021/12/14 12:43:17;;;;;;;;;;;;;;;7.57;100.00;101760.13;5018834;28;1223;-78
2021/12/14 12:45:52;;;;;;;;;;;;;;;7.49;100.00;101758.69;5018524;28;1306;-75
2021/12/14 12:48:33;;;;;;;;;;;;;;;7.47;100.00;101760.59;5017993;28;1910;-76
2021/12/14 12:51:00;;;;;;;;;;;;;;;7.50;100.00;101756.88;5034093;28;1602;-77
2021/12/14 12:53:28;;;;;;;;;;;;;;;7.50;100.00;101762.28;5018056;28;1373;-76
2021/12/14 12:56:03;;;;;;;;;;;;;;;7.51;100.00;101759.50;5017851;28;1299;-74
2021/12/14 12:58:29;;;;;;;;;;;;;;;7.48;100.00;101759.66;5018063;28;1164;-77
2021/12/14 13:00:57;;;;;;;;;;;;;;;7.40;100.00;101769.97;5017784;28;1129;-78
2021/12/14 13:03:26;;;;;;;;;;;;;;;7.40;100.00;101764.56;5018229;28;1231;-76
2021/12/14 13:05:54;;;;;;;;;;;;;;;7.41;100.00;101760.06;5021632;23;3499;-75
2021/12/14 13:08:23;;;;;;;;;;;;;;;7.34;100.00;101760.34;4999028;28;1910;-74
2021/12/14 13:10:53;;;;;;;;;;;;;;;7.33;100.00;101768.53;4998647;28;1246;-75
2021/12/14 13:13:22;;;;;;;;;;;;;;;7.27;100.00;101771.53;5001892;28;1411;-76
2021/12/14 13:15:52;;;;;;;;;;;;;;;7.23;100.00;101778.06;4998841;28;1315;-76
2021/12/14 13:18:26;;;;;;;;;;;;;;;7.16;100.00;101772.97;4998621;28;1537;-75
2021/12/14 13:20:55;;;;;;;;;;;;;;;7.14;100.00;101788.38;4998174;28;1145;-76
2021/12/14 13:23:23;;;;;;;;;;;;;;;7.09;100.00;101801.22;4998122;28;1434;-76
2021/12/14 13:25:50;;;;;;;;;;;;;;;7.06;100.00;101798.69;4998104;28;1427;-75
2021/12/14 13:28:17;;;;;;;;;;;;;;;6.97;100.00;101799.13;4998004;28;1979;-74
2021/12/14 13:30:44;;;;;;;;;;;;;;;6.86;100.00;101814.03;4998019;28;1469;-75